Time;durP1;ratioP1;P1;durP2;ratioP2;P2;SDS_P1;SDS_P2;PMS_P1;PMS_P2;Temp;Humidity;BMP_temperature;BMP_pressure;BME280_temperature;BME280_humidity;BME280_pressure;Samples;Min_cycle;Max_cycle;Signal;HPM_P1;HPM_P2
2023/07/17 00:01:22;;;;;;;6.83;5.37;;;18.30;99.90;;;;;;5114070;28;20679;-74
2023/07/17 00:03:48;;;;;;;6.07;5.57;;;18.40;99.90;;;;;;5113699;28;20251;-74
2023/07/17 00:06:13;;;;;;;6.47;5.87;;;18.40;99.90;;;;;;5114155;28;20545;-74
2023/07/17 00:08:39;;;;;;;7.00;6.30;;;18.50;99.90;;;;;;5113857;28;20173;-75
2023/07/17 00:11:04;;;;;;;8.23;6.97;;;18.60;99.90;;;;;;5113697;28;20200;-74
2023/07/17 00:13:30;;;;;;;7.23;6.57;;;18.60;99.90;;;;;;5095455;28;20745;-74
2023/07/17 00:15:55;;;;;;;10.13;5.23;;;18.80;99.90;;;;;;5113653;28;20218;-74
2023/07/17 00:18:21;;;;;;;8.23;6.33;;;18.80;99.90;;;;;;5114076;28;20206;-74
2023/07/17 00:20:47;;;;;;;5.97;5.40;;;18.80;99.90;;;;;;5094332;28;20193;-74
2023/07/17 00:23:12;;;;;;;6.57;5.17;;;18.80;99.90;;;;;;5105804;28;20182;-74
2023/07/17 00:25:38;;;;;;;6.03;5.43;;;18.80;99.90;;;;;;5073549;28;20174;-74
2023/07/17 00:28:03;;;;;;;12.23;5.67;;;18.80;99.90;;;;;;5092629;28;20205;-74
2023/07/17 00:30:29;;;;;;;6.33;5.73;;;18.80;99.90;;;;;;5093035;28;20718;-73
2023/07/17 00:32:55;;;;;;;6.60;6.00;;;18.70;99.90;;;;;;5092667;28;20173;-74
2023/07/17 00:35:20;;;;;;;7.93;7.10;;;18.70;99.90;;;;;;5093116;28;20170;-75
2023/07/17 00:37:46;;;;;;;7.30;6.33;;;18.70;99.90;;;;;;5093032;28;20181;-75
2023/07/17 00:40:12;;;;;;;6.60;5.87;;;18.70;99.90;;;;;;5102806;28;20739;-74
2023/07/17 00:42:38;;;;;;;6.27;5.77;;;18.60;99.90;;;;;;5113117;28;20647;-74
2023/07/17 00:45:05;;;;;;;6.80;6.13;;;18.50;99.90;;;;;;5113328;28;20180;-75
2023/07/17 00:47:31;;;;;;;6.90;6.03;;;18.40;99.90;;;;;;5113389;28;20168;-75
2023/07/17 00:49:57;;;;;;;7.67;6.33;;;18.20;99.90;;;;;;5112995;28;20244;-74
2023/07/17 00:52:24;;;;;;;6.23;5.70;;;18.20;99.90;;;;;;5112199;28;20176;-74
2023/07/17 00:54:50;;;;;;;7.97;7.30;;;18.10;99.90;;;;;;5113011;28;20244;-74
2023/07/17 00:57:18;;;;;;;8.13;7.37;;;18.00;99.90;;;;;;5113266;28;20469;-75
2023/07/17 00:59:43;;;;;;;7.77;7.10;;;18.00;99.90;;;;;;5109949;28;20212;-74
2023/07/17 01:02:10;;;;;;;6.90;6.30;;;18.00;99.90;;;;;;5092596;28;20255;-74
2023/07/17 01:04:36;;;;;;;6.73;5.43;;;18.00;99.90;;;;;;5092231;28;20671;-75
2023/07/17 01:07:03;;;;;;;8.60;6.50;;;18.00;99.90;;;;;;5111811;28;20176;-74
2023/07/17 01:09:29;;;;;;;8.00;5.93;;;18.00;99.90;;;;;;5112721;28;20224;-74
2023/07/17 01:11:54;;;;;;;8.00;5.67;;;17.90;99.90;;;;;;5112585;28;20173;-74
2023/07/17 01:14:20;;;;;;;7.77;6.63;;;17.80;99.90;;;;;;5112457;28;20568;-74
2023/07/17 01:16:47;;;;;;;9.43;6.47;;;17.80;99.90;;;;;;5112756;28;20164;-74
2023/07/17 01:19:13;;;;;;;7.07;6.37;;;17.70;99.90;;;;;;5112587;28;20193;-74
2023/07/17 01:21:45;;;;;;;8.23;6.67;;;17.70;99.90;;;;;;5112152;28;20173;-74
2023/07/17 01:24:11;;;;;;;7.13;6.43;;;17.70;99.90;;;;;;5112293;28;20647;-75
2023/07/17 01:26:37;;;;;;;6.13;5.40;;;17.60;99.90;;;;;;5112468;28;20168;-74
2023/07/17 01:29:03;;;;;;;5.73;5.23;;;17.70;99.90;;;;;;5112402;28;20192;-74
2023/07/17 01:31:28;;;;;;;6.17;5.30;;;17.60;99.90;;;;;;5112561;28;20266;-75
2023/07/17 01:33:54;;;;;;;8.63;5.93;;;17.60;99.90;;;;;;5101905;28;20457;-74
2023/07/17 01:36:19;;;;;;;9.17;5.07;;;17.50;99.90;;;;;;5074001;28;20170;-75
2023/07/17 01:38:45;;;;;;;6.00;5.47;;;17.50;99.90;;;;;;5091767;28;20256;-74
2023/07/17 01:41:10;;;;;;;6.13;4.77;;;17.40;99.90;;;;;;5091968;28;20221;-74
2023/07/17 01:43:36;;;;;;;6.07;5.07;;;17.30;99.90;;;;;;5110346;28;20616;-74
2023/07/17 01:46:02;;;;;;;8.23;5.23;;;17.30;99.90;;;;;;5117255;28;20177;-74
2023/07/17 01:48:28;;;;;;;6.47;5.50;;;17.30;99.90;;;;;;5100918;28;20529;-75
2023/07/17 01:50:53;;;;;;;7.40;5.57;;;17.20;99.90;;;;;;5116213;28;20601;-74
2023/07/17 01:53:20;;;;;;;6.13;5.63;;;17.20;99.90;;;;;;5118292;28;20207;-75
2023/07/17 01:55:46;;;;;;;6.67;5.93;;;17.20;99.90;;;;;;5118304;28;20161;-75
2023/07/17 01:58:12;;;;;;;5.57;5.07;;;17.10;99.90;;;;;;5117470;28;20210;-74
2023/07/17 02:00:37;;;;;;;6.33;5.73;;;17.10;99.90;;;;;;5115895;28;20245;-74
2023/07/17 02:03:03;;;;;;;5.90;5.43;;;17.10;99.90;;;;;;5092272;28;20234;-74
2023/07/17 02:05:29;;;;;;;7.53;6.60;;;17.10;99.90;;;;;;5091817;28;20591;-74
2023/07/17 02:07:54;;;;;;;6.30;5.70;;;17.10;99.90;;;;;;5091437;28;20256;-75
2023/07/17 02:10:20;;;;;;;10.03;7.40;;;17.10;99.90;;;;;;5091312;28;20232;-74
2023/07/17 02:12:46;;;;;;;6.20;5.53;;;17.10;99.90;;;;;;5091215;28;20215;-74
2023/07/17 02:15:12;;;;;;;5.20;4.80;;;17.10;99.90;;;;;;5091506;28;20607;-74
2023/07/17 02:17:38;;;;;;;6.30;4.73;;;17.20;99.90;;;;;;5091359;28;20223;-73
2023/07/17 02:20:09;;;;;;;5.17;4.67;;;17.20;99.90;;;;;;5091179;28;20707;-74
2023/07/17 02:22:36;;;;;;;9.20;5.33;;;17.30;99.90;;;;;;5091280;28;20588;-74
2023/07/17 02:25:05;;;;;;;6.03;4.40;;;17.30;99.90;;;;;;5091450;28;20188;-74
2023/07/17 02:27:32;;;;;;;5.57;5.07;;;17.30;99.90;;;;;;5091509;28;20218;-73
2023/07/17 02:29:57;;;;;;;5.70;5.17;;;17.40;99.90;;;;;;5100792;28;20238;-74
2023/07/17 02:32:23;;;;;;;5.40;4.90;;;17.30;99.90;;;;;;5111273;28;20682;-74
2023/07/17 02:34:49;;;;;;;4.17;3.90;;;17.30;99.90;;;;;;5111674;28;20165;-75
2023/07/17 02:37:14;;;;;;;4.87;4.47;;;17.30;99.90;;;;;;5111531;28;20568;-74
2023/07/17 02:39:40;;;;;;;5.33;4.87;;;17.30;99.90;;;;;;5093388;28;20311;-74
2023/07/17 02:42:06;;;;;;;7.77;5.50;;;17.40;99.90;;;;;;5111518;28;20180;-74
2023/07/17 02:44:31;;;;;;;6.73;5.67;;;17.40;99.90;;;;;;5111306;28;20169;-75
2023/07/17 02:46:57;;;;;;;9.53;5.03;;;17.50;99.90;;;;;;5111497;28;20226;-75
2023/07/17 02:49:22;;;;;;;5.30;4.90;;;17.50;99.90;;;;;;5112394;28;20193;-74
2023/07/17 02:51:48;;;;;;;10.47;5.20;;;17.40;99.90;;;;;;5115449;28;20169;-74
2023/07/17 02:54:13;;;;;;;5.77;5.27;;;17.40;99.90;;;;;;5115143;28;20258;-75
2023/07/17 02:56:39;;;;;;;6.07;5.57;;;17.40;99.90;;;;;;5115325;28;20172;-74
2023/07/17 02:59:05;;;;;;;7.00;5.10;;;17.30;99.90;;;;;;5096044;28;20322;-74
2023/07/17 03:01:31;;;;;;;5.30;4.80;;;17.30;99.90;;;;;;5094955;28;20184;-74
2023/07/17 03:03:56;;;;;;;4.77;4.33;;;17.20;99.90;;;;;;5094450;28;20260;-75
2023/07/17 03:06:22;;;;;;;5.50;5.10;;;17.10;99.90;;;;;;5094944;28;20257;-75
2023/07/17 03:08:48;;;;;;;6.70;6.10;;;17.10;99.90;;;;;;5094792;28;20640;-75
2023/07/17 03:11:13;;;;;;;5.63;5.10;;;17.00;99.90;;;;;;5094764;28;20572;-74
2023/07/17 03:13:39;;;;;;;5.80;5.17;;;16.90;99.90;;;;;;5094435;28;20169;-75
2023/07/17 03:16:04;;;;;;;4.90;4.50;;;16.90;99.90;;;;;;5076311;28;20181;-75
2023/07/17 03:18:30;;;;;;;6.43;5.20;;;16.80;99.90;;;;;;5094642;28;20177;-75
2023/07/17 03:20:56;;;;;;;5.53;4.60;;;16.80;99.90;;;;;;5094380;28;20200;-74
2023/07/17 03:23:21;;;;;;;12.10;5.17;;;16.80;99.90;;;;;;5094224;28;20621;-75
2023/07/17 03:25:47;;;;;;;6.27;5.77;;;16.80;99.90;;;;;;5102074;28;20184;-74
2023/07/17 03:28:13;;;;;;;6.80;5.17;;;16.90;99.90;;;;;;5096473;28;20266;-75
2023/07/17 03:30:40;;;;;;;5.40;5.00;;;16.90;99.90;;;;;;5096486;28;20204;-75
2023/07/17 03:33:06;;;;;;;5.60;5.10;;;16.90;99.90;;;;;;5096215;28;20611;-74
2023/07/17 03:35:33;;;;;;;5.37;4.87;;;16.90;99.90;;;;;;5114774;28;20165;-74
2023/07/17 03:37:59;;;;;;;5.20;4.73;;;16.90;99.90;;;;;;5114478;28;20722;-75
2023/07/17 03:40:24;;;;;;;5.23;4.70;;;16.90;99.90;;;;;;5114220;28;20339;-75
2023/07/17 03:42:50;;;;;;;5.67;4.60;;;16.90;99.90;;;;;;5114229;28;20267;-74
2023/07/17 03:45:16;;;;;;;5.30;4.50;;;16.80;99.90;;;;;;5096216;28;20184;-74
2023/07/17 03:47:41;;;;;;;6.57;5.97;;;16.70;99.90;;;;;;5114432;28;20169;-74
2023/07/17 03:50:07;;;;;;;5.73;5.23;;;16.60;99.90;;;;;;5114428;28;20284;-75
2023/07/17 03:52:33;;;;;;;6.10;5.50;;;16.50;99.90;;;;;;5114045;28;20570;-74
2023/07/17 03:54:58;;;;;;;7.33;5.40;;;16.50;99.90;;;;;;5096264;28;20531;-73
2023/07/17 03:57:24;;;;;;;8.93;5.37;;;16.40;99.90;;;;;;5094057;28;20184;-73
2023/07/17 03:59:56;;;;;;;6.23;5.57;;;16.40;99.90;;;;;;5093570;28;20236;-73
2023/07/17 04:02:22;;;;;;;6.23;5.73;;;16.30;99.90;;;;;;5092512;28;20541;-73
2023/07/17 04:04:48;;;;;;;5.60;5.20;;;16.30;99.90;;;;;;5093573;28;20257;-73
2023/07/17 04:07:14;;;;;;;8.10;5.73;;;16.20;99.90;;;;;;5093868;28;20252;-74
2023/07/17 04:09:40;;;;;;;6.50;5.53;;;16.20;99.90;;;;;;5093401;28;20645;-73
2023/07/17 04:12:06;;;;;;;6.00;5.40;;;16.10;99.90;;;;;;5093447;28;20173;-73
2023/07/17 04:14:33;;;;;;;6.03;5.50;;;16.10;99.90;;;;;;5093212;28;20165;-73
2023/07/17 04:16:59;;;;;;;6.10;5.50;;;16.10;99.90;;;;;;5093416;28;20231;-73
2023/07/17 04:19:26;;;;;;;5.73;5.23;;;16.10;99.90;;;;;;5092939;28;20260;-73
2023/07/17 04:21:52;;;;;;;6.97;5.53;;;16.10;99.90;;;;;;5101215;28;20165;-74
2023/07/17 04:24:17;;;;;;;6.90;6.20;;;16.10;99.90;;;;;;5113503;28;20656;-74
2023/07/17 04:26:43;;;;;;;6.47;5.83;;;16.10;99.90;;;;;;5113612;28;20178;-73
2023/07/17 04:29:10;;;;;;;6.77;6.20;;;16.10;99.90;;;;;;5113597;28;20195;-74
2023/07/17 04:31:36;;;;;;;7.43;6.80;;;16.20;99.90;;;;;;5113883;28;20196;-73
2023/07/17 04:34:02;;;;;;;8.10;7.17;;;16.20;99.90;;;;;;5113031;28;20169;-73
2023/07/17 04:36:28;;;;;;;8.03;5.53;;;16.30;99.90;;;;;;5113477;28;20228;-74
2023/07/17 04:38:53;;;;;;;5.90;5.40;;;16.30;99.90;;;;;;5113305;28;20187;-74
2023/07/17 04:41:19;;;;;;;8.17;5.33;;;16.40;99.90;;;;;;5112830;28;20183;-74
2023/07/17 04:43:45;;;;;;;7.17;5.70;;;16.40;99.90;;;;;;5112984;28;20275;-73
2023/07/17 04:46:10;;;;;;;5.50;5.00;;;16.50;99.90;;;;;;5113351;28;20259;-74
2023/07/17 04:48:36;;;;;;;4.90;4.50;;;16.60;99.90;;;;;;5113020;28;20259;-73
2023/07/17 04:51:02;;;;;;;5.53;4.97;;;16.70;99.90;;;;;;5093465;28;20201;-74
2023/07/17 04:53:27;;;;;;;6.10;5.57;;;16.70;99.90;;;;;;5074365;28;20188;-74
2023/07/17 04:55:53;;;;;;;5.30;4.80;;;16.80;99.90;;;;;;5074548;28;20184;-74
2023/07/17 04:58:19;;;;;;;6.47;5.60;;;16.80;99.90;;;;;;5074636;28;20177;-74
2023/07/17 05:00:47;;;;;;;5.03;4.63;;;17.00;99.90;;;;;;5092416;28;20194;-74
2023/07/17 05:03:15;;;;;;;6.83;5.27;;;17.10;99.90;;;;;;5074148;28;20612;-76
2023/07/17 05:05:46;;;;;;;6.23;5.47;;;17.30;99.90;;;;;;5092477;28;20177;-74
2023/07/17 05:08:12;;;;;;;5.37;4.97;;;17.60;99.90;;;;;;5092605;28;20174;-74
2023/07/17 05:10:37;;;;;;;5.40;4.97;;;17.70;99.90;;;;;;5092025;28;20282;-73
2023/07/17 05:13:03;;;;;;;4.80;4.33;;;17.90;99.90;;;;;;5073465;28;20256;-74
2023/07/17 05:15:28;;;;;;;5.37;4.83;;;17.90;99.90;;;;;;5092355;28;20199;-74
2023/07/17 05:17:54;;;;;;;8.20;5.87;;;18.10;99.90;;;;;;5099800;28;20180;-74
2023/07/17 05:20:20;;;;;;;4.97;4.57;;;18.20;99.90;;;;;;5112442;28;20208;-73
2023/07/17 05:22:45;;;;;;;4.53;4.13;;;18.40;99.90;;;;;;5112010;28;20209;-74
2023/07/17 05:25:11;;;;;;;5.13;4.70;;;18.60;99.90;;;;;;5111647;28;20562;-75
2023/07/17 05:27:36;;;;;;;5.43;4.50;;;18.80;99.90;;;;;;5112651;28;20169;-75
2023/07/17 05:30:02;;;;;;;5.07;4.60;;;18.90;99.90;;;;;;5111867;28;20208;-74
2023/07/17 05:32:28;;;;;;;4.90;4.40;;;18.90;99.90;;;;;;5111968;28;20256;-74
2023/07/17 05:34:54;;;;;;;4.40;4.00;;;18.80;99.90;;;;;;5112321;28;20545;-74
2023/07/17 05:37:20;;;;;;;6.63;4.90;;;18.80;99.90;;;;;;5112362;28;20241;-74
2023/07/17 05:39:46;;;;;;;6.07;5.47;;;18.70;99.90;;;;;;5093920;28;20287;-75
2023/07/17 05:42:11;;;;;;;4.80;4.50;;;18.60;99.90;;;;;;5094020;28;20184;-75
2023/07/17 05:44:37;;;;;;;5.90;4.90;;;18.70;99.90;;;;;;5112007;28;20195;-74
2023/07/17 05:47:03;;;;;;;5.43;4.10;;;18.90;99.90;;;;;;5094651;28;20173;-73
2023/07/17 05:49:28;;;;;;;5.53;4.43;;;19.10;99.90;;;;;;5073557;28;20197;-73
2023/07/17 05:51:54;;;;;;;4.70;4.30;;;19.50;99.90;;;;;;5073618;28;20181;-73
2023/07/17 05:54:20;;;;;;;5.93;5.50;;;19.90;99.90;;;;;;5073409;28;20660;-74
2023/07/17 05:56:46;;;;;;;5.78;5.32;;;20.00;99.90;;;;;;5091571;28;20600;-73
2023/07/17 05:59:11;;;;;;;6.30;5.57;;;20.10;99.90;;;;;;5073485;28;20240;-74
2023/07/17 06:01:37;;;;;;;6.35;5.47;;;20.30;99.90;;;;;;5091765;28;20177;-74
2023/07/17 06:04:02;;;;;;;8.82;5.28;;;20.40;99.90;;;;;;5073021;28;20652;-74
2023/07/17 06:06:28;;;;;;;4.95;4.40;;;20.60;99.90;;;;;;5091739;28;20177;-74
2023/07/17 06:08:53;;;;;;;4.47;4.18;;;20.70;99.90;;;;;;5091645;28;20250;-74
2023/07/17 06:11:19;;;;;;;5.85;4.35;;;20.90;99.90;;;;;;5091768;28;20201;-74
2023/07/17 06:13:44;;;;;;;7.80;4.35;;;21.10;99.90;;;;;;5097065;28;20537;-74
2023/07/17 06:16:10;;;;;;;5.25;4.82;;;21.20;99.90;;;;;;5093735;28;20181;-73
2023/07/17 06:18:36;;;;;;;13.57;6.03;;;21.30;99.90;;;;;;5112114;28;20252;-73
2023/07/17 06:21:01;;;;;;;5.75;5.35;;;21.40;99.90;;;;;;5091753;28;20632;-73
2023/07/17 06:23:27;;;;;;;5.45;4.82;;;21.70;99.90;;;;;;5091411;28;20244;-72
2023/07/17 06:25:52;;;;;;;5.93;5.38;;;21.80;99.90;;;;;;5094689;28;20599;-74
2023/07/17 06:28:18;;;;;;;6.72;3.72;;;21.90;99.90;;;;;;5094350;28;20165;-74
2023/07/17 06:30:46;;;;;;;4.35;3.72;;;22.10;99.90;;;;;;5094401;28;20244;-72
2023/07/17 06:33:13;;;;;;;4.53;3.67;;;22.10;99.90;;;;;;5095213;28;20162;-74
2023/07/17 06:35:39;;;;;;;4.53;4.00;;;22.10;99.90;;;;;;5095305;28;20166;-73
2023/07/17 06:38:05;;;;;;;5.30;3.95;;;22.20;99.90;;;;;;5095148;28;20260;-72
2023/07/17 06:40:30;;;;;;;5.05;3.97;;;22.30;99.90;;;;;;5095006;28;20218;-73
2023/07/17 06:42:56;;;;;;;7.45;3.67;;;22.40;99.90;;;;;;5110156;28;20310;-74
2023/07/17 06:45:22;;;;;;;5.97;4.10;;;22.50;99.90;;;;;;5115337;28;20164;-73
2023/07/17 06:47:48;;;;;;;5.03;3.90;;;22.50;99.90;;;;;;5115328;28;20177;-74
2023/07/17 06:50:13;;;;;;;4.50;3.97;;;22.70;99.90;;;;;;5115304;28;20615;-73
2023/07/17 06:52:41;;;;;;;4.20;3.85;;;22.60;99.90;;;;;;5115059;28;20239;-74
2023/07/17 06:55:08;;;;;;;4.85;4.35;;;22.50;99.90;;;;;;5115219;28;20165;-72
2023/07/17 06:57:33;;;;;;;5.90;4.25;;;22.60;99.90;;;;;;5115144;28;20196;-73
2023/07/17 06:59:59;;;;;;;4.47;4.05;;;23.00;99.90;;;;;;5111962;28;20227;-72
2023/07/17 07:02:24;;;;;;;5.75;4.18;;;23.30;99.90;;;;;;5100921;28;20226;-72
2023/07/17 07:04:50;;;;;;;4.30;3.78;;;23.20;99.90;;;;;;5096662;28;20215;-72
2023/07/17 07:07:16;;;;;;;4.72;4.32;;;23.30;99.90;;;;;;5115066;28;20169;-73
2023/07/17 07:09:41;;;;;;;5.53;5.03;;;23.10;99.90;;;;;;5115257;28;20292;-72
2023/07/17 07:12:07;;;;;;;4.68;4.10;;;23.00;99.90;;;;;;5114984;28;20169;-72
2023/07/17 07:14:33;;;;;;;6.80;4.15;;;23.00;99.90;;;;;;5114793;28;20524;-72
2023/07/17 07:16:59;;;;;;;5.28;4.40;;;23.10;99.90;;;;;;5115399;28;20169;-72
2023/07/17 07:19:24;;;;;;;6.20;4.85;;;22.90;99.90;;;;;;5106724;28;20193;-72
2023/07/17 07:21:50;;;;;;;8.60;4.93;;;22.80;99.90;;;;;;5104891;28;20234;-73
2023/07/17 07:24:15;;;;;;;6.18;4.75;;;22.90;99.90;;;;;;5111202;28;20268;-71
2023/07/17 07:26:41;;;;;;;5.45;4.13;;;23.10;99.90;;;;;;5114472;28;20664;-71
2023/07/17 07:29:06;;;;;;;8.15;4.38;;;23.30;99.90;;;;;;5114408;28;20204;-72
2023/07/17 07:31:32;;;;;;;4.88;4.38;;;23.80;99.90;;;;;;5114502;28;20205;-72
2023/07/17 07:33:58;;;;;;;6.10;4.43;;;24.40;99.90;;;;;;5114012;28;20221;-72
2023/07/17 07:36:25;;;;;;;5.68;4.90;;;24.70;99.90;;;;;;5114056;28;20326;-72
2023/07/17 07:38:51;;;;;;;4.93;4.35;;;24.60;99.90;;;;;;5114278;28;20394;-72
2023/07/17 07:41:17;;;;;;;6.75;5.38;;;24.50;99.90;;;;;;5114375;28;20252;-73
2023/07/17 07:43:43;;;;;;;6.63;5.07;;;24.40;99.90;;;;;;5113833;28;20342;-72
2023/07/17 07:46:09;;;;;;;6.05;5.05;;;24.40;99.90;;;;;;5111219;28;20173;-74
2023/07/17 07:48:34;;;;;;;5.28;4.78;;;24.60;99.90;;;;;;5093652;28;20689;-72
2023/07/17 07:51:00;;;;;;;8.85;5.55;;;24.60;99.90;;;;;;5093679;28;20231;-71
2023/07/17 07:53:26;;;;;;;9.27;5.32;;;24.80;99.90;;;;;;5093641;28;20165;-72
2023/07/17 07:55:51;;;;;;;6.97;5.57;;;24.80;99.90;;;;;;5093685;28;20170;-70
2023/07/17 07:58:17;;;;;;;5.32;4.70;;;24.80;99.90;;;;;;5093664;28;20585;-74
2023/07/17 08:00:42;;;;;;;7.05;5.45;;;24.50;99.90;;;;;;5093515;28;20268;-73
2023/07/17 08:03:08;;;;;;;5.43;4.93;;;24.40;99.90;;;;;;5093492;28;20173;-73
2023/07/17 08:05:33;;;;;;;6.07;5.43;;;24.40;99.90;;;;;;5093708;28;20172;-74
2023/07/17 08:07:59;;;;;;;6.78;5.07;;;24.60;99.90;;;;;;5093501;28;20173;-73
2023/07/17 08:10:25;;;;;;;4.95;4.45;;;24.80;99.90;;;;;;5093292;28;20278;-72
2023/07/17 08:12:50;;;;;;;5.32;4.82;;;25.10;99.90;;;;;;5093065;28;20178;-73
2023/07/17 08:15:16;;;;;;;5.85;4.63;;;25.10;99.90;;;;;;5104932;28;20177;-70
2023/07/17 08:17:41;;;;;;;6.72;4.97;;;25.10;99.90;;;;;;5113814;28;20176;-71
2023/07/17 08:20:08;;;;;;;5.70;4.85;;;24.90;99.90;;;;;;5113741;28;20204;-73
2023/07/17 08:22:33;;;;;;;6.85;6.18;;;24.70;99.90;;;;;;5113414;28;20537;-73
2023/07/17 08:24:59;;;;;;;7.53;4.65;;;24.80;99.90;;;;;;5113244;28;20585;-73
2023/07/17 08:27:25;;;;;;;5.85;5.03;;;25.10;99.90;;;;;;5113351;28;20172;-71
2023/07/17 08:29:51;;;;;;;4.97;4.53;;;25.40;99.90;;;;;;5113079;28;20729;-73
2023/07/17 08:32:16;;;;;;;6.78;4.70;;;25.40;99.90;;;;;;5113135;28;20169;-73
2023/07/17 08:34:42;;;;;;;6.15;4.75;;;25.20;99.90;;;;;;5113149;28;20180;-70
2023/07/17 08:37:08;;;;;;;8.40;4.15;;;25.30;99.90;;;;;;5113325;28;20578;-73
2023/07/17 08:39:34;;;;;;;4.95;4.50;;;25.20;99.90;;;;;;5113054;28;20619;-73
2023/07/17 08:42:00;;;;;;;5.35;4.53;;;25.30;99.90;;;;;;5112728;28;20196;-74
2023/07/17 08:44:27;;;;;;;5.30;4.82;;;25.20;99.90;;;;;;5092224;28;20177;-73
2023/07/17 08:46:53;;;;;;;4.50;4.10;;;25.60;99.90;;;;;;5091913;28;20173;-73
2023/07/17 08:49:19;;;;;;;5.28;4.28;;;25.60;99.90;;;;;;5092851;28;20185;-73
2023/07/17 08:51:51;;;;;;;6.55;4.38;;;25.70;99.90;;;;;;5092615;28;20273;-73
2023/07/17 08:54:18;;;;;;;5.93;5.43;;;25.90;99.90;;;;;;5092283;28;20529;-72
2023/07/17 08:56:46;;;;;;;6.60;4.90;;;26.00;99.90;;;;;;5092244;28;20731;-73
2023/07/17 08:59:12;;;;;;;4.85;4.35;;;25.70;99.90;;;;;;5092375;28;20209;-73
2023/07/17 09:01:37;;;;;;;6.28;4.15;;;25.60;99.90;;;;;;5092545;28;20537;-73
2023/07/17 09:04:04;;;;;;;9.05;4.65;;;25.70;99.90;;;;;;5092239;28;20640;-73
2023/07/17 09:06:30;;;;;;;6.97;5.03;;;25.90;99.90;;;;;;5092339;28;20174;-73
2023/07/17 09:08:55;;;;;;;7.13;5.05;;;26.60;99.90;;;;;;5097452;28;20526;-72
2023/07/17 09:11:21;;;;;;;5.97;5.40;;;26.90;99.90;;;;;;5112701;28;20207;-71
2023/07/17 09:13:49;;;;;;;6.28;5.28;;;26.70;99.90;;;;;;5112175;28;20173;-73
2023/07/17 09:16:23;;;;;;;5.88;5.28;;;25.90;99.90;;;;;;5112596;28;20639;-73
2023/07/17 09:18:51;;;;;;;5.63;5.05;;;25.00;99.90;;;;;;5112518;28;20636;-72
2023/07/17 09:21:18;;;;;;;6.97;4.10;;;24.70;99.90;;;;;;5094409;28;20196;-72
2023/07/17 09:23:46;;;;;;;7.55;4.53;;;24.90;99.90;;;;;;5112094;28;20222;-72
2023/07/17 09:26:14;;;;;;;7.70;7.10;;;24.80;99.90;;;;;;5112446;28;20260;-71
2023/07/17 09:28:53;;;;;;;7.38;6.78;;;24.50;99.90;;;;;;5112257;28;20652;-70
2023/07/17 09:31:29;;;;;;;5.60;4.63;;;24.30;99.90;;;;;;5112491;28;20196;-72
2023/07/17 09:33:57;;;;;;;7.35;5.03;;;24.00;99.90;;;;;;5111589;28;20168;-72
2023/07/17 09:36:23;;;;;;;8.88;5.55;;;24.30;99.90;;;;;;5111014;28;20172;-71
2023/07/17 09:38:54;;;;;;;6.70;6.07;;;24.60;99.90;;;;;;5091613;28;20169;-72
2023/07/17 09:41:24;;;;;;;6.22;4.28;;;24.80;99.90;;;;;;5091415;28;20537;-71
2023/07/17 09:43:53;;;;;;;4.75;4.32;;;25.40;99.90;;;;;;5091564;28;20196;-72
2023/07/17 09:46:20;;;;;;;5.82;5.20;;;25.90;99.90;;;;;;5091908;28;20174;-72
2023/07/17 09:48:45;;;;;;;6.90;5.05;;;26.10;99.90;;;;;;5091640;28;20165;-73
2023/07/17 09:51:12;;;;;;;5.60;5.10;;;25.80;99.90;;;;;;5073558;28;20208;-71
2023/07/17 09:53:40;;;;;;;6.43;4.97;;;25.40;99.90;;;;;;5091508;28;20588;-73
2023/07/17 09:56:11;;;;;;;6.35;4.85;;;25.20;99.90;;;;;;5091771;28;20203;-72
2023/07/17 09:58:41;;;;;;;7.03;5.50;;;24.60;99.90;;;;;;5091571;28;20165;-72
2023/07/17 10:01:08;;;;;;;6.90;5.65;;;24.50;99.90;;;;;;5080746;28;20176;-72
2023/07/17 10:03:35;;;;;;;6.10;5.38;;;24.40;99.90;;;;;;5111485;28;20180;-73
2023/07/17 10:06:02;;;;;;;5.03;4.45;;;24.60;99.90;;;;;;5096804;28;20252;-73
2023/07/17 10:08:28;;;;;;;6.47;4.80;;;25.10;99.90;;;;;;5091545;28;20177;-72
2023/07/17 10:10:54;;;;;;;7.72;4.97;;;25.70;99.90;;;;;;5091496;28;20209;-71
2023/07/17 10:13:20;;;;;;;6.45;5.28;;;26.10;99.90;;;;;;5091175;28;20288;-73
2023/07/17 10:15:46;;;;;;;6.90;4.78;;;26.40;99.90;;;;;;5091382;28;20649;-72
2023/07/17 10:18:12;;;;;;;4.90;4.45;;;26.60;99.90;;;;;;5091429;28;20172;-72
2023/07/17 10:20:39;;;;;;;7.97;4.90;;;26.90;99.90;;;;;;5091405;28;20563;-71
2023/07/17 10:23:21;;;;;;;6.63;5.82;;;27.00;99.90;;;;;;5090987;28;20184;-73
2023/07/17 10:25:46;;;;;;;8.68;5.47;;;27.10;99.90;;;;;;5073308;28;20271;-73
2023/07/17 10:28:12;;;;;;;5.90;4.85;;;27.00;99.90;;;;;;5091379;28;20220;-72
2023/07/17 10:30:38;;;;;;;6.63;5.25;;;26.70;99.90;;;;;;5091244;28;20403;-72
2023/07/17 10:33:17;;;;;;;11.02;5.30;;;26.40;99.90;;;;;;5096888;28;20200;-73
2023/07/17 10:36:00;;;;;;;6.53;4.53;;;26.40;99.90;;;;;;5111560;28;20535;-71
2023/07/17 10:38:31;;;;;;;7.38;5.20;;;26.60;99.90;;;;;;5111626;28;20260;-72
2023/07/17 10:41:06;;;;;;;5.25;4.40;;;26.50;99.90;;;;;;5111366;28;20245;-72
2023/07/17 10:43:34;;;;;;;5.68;4.75;;;26.60;99.90;;;;;;5111308;28;20175;-71
2023/07/17 10:46:00;;;;;;;6.95;5.05;;;27.00;99.90;;;;;;5111537;28;20652;-73
2023/07/17 10:48:26;;;;;;;5.72;5.07;;;27.00;99.90;;;;;;5110986;28;20171;-73
2023/07/17 10:50:53;;;;;;;5.95;4.90;;;27.00;99.90;;;;;;5110982;28;20717;-72
2023/07/17 10:53:20;;;;;;;9.43;5.65;;;26.90;99.90;;;;;;5111769;28;20173;-73
2023/07/17 10:55:46;;;;;;;5.78;4.82;;;26.90;99.90;;;;;;5111450;28;20199;-71
2023/07/17 10:58:13;;;;;;;6.72;4.68;;;26.60;99.90;;;;;;5109598;28;20173;-73
2023/07/17 11:00:42;;;;;;;4.88;4.40;;;26.40;99.90;;;;;;5091091;28;20193;-72
2023/07/17 11:03:20;;;;;;;6.20;4.80;;;26.40;99.90;;;;;;5094667;28;20173;-73
2023/07/17 11:05:46;;;;;;;5.78;4.85;;;26.20;99.90;;;;;;5111117;28;20283;-73
2023/07/17 11:08:12;;;;;;;7.50;5.20;;;26.10;99.90;;;;;;5111363;28;20629;-73
2023/07/17 11:10:43;;;;;;;5.43;4.82;;;25.90;99.90;;;;;;5111953;28;20232;-73
2023/07/17 11:13:09;;;;;;;5.53;4.95;;;26.00;99.90;;;;;;5114905;28;20221;-72
2023/07/17 11:15:35;;;;;;;6.80;5.18;;;26.00;99.90;;;;;;5115324;28;20640;-71
2023/07/17 11:18:03;;;;;;;6.47;4.78;;;25.90;99.90;;;;;;5096553;28;20272;-71
2023/07/17 11:20:30;;;;;;;7.65;4.97;;;25.70;99.90;;;;;;5115169;28;20188;-72
2023/07/17 11:22:56;;;;;;;5.40;4.90;;;25.80;99.90;;;;;;5114653;28;20541;-73
2023/07/17 11:25:25;;;;;;;4.93;4.47;;;26.00;99.90;;;;;;5114958;28;20168;-73
2023/07/17 11:27:52;;;;;;;6.10;4.47;;;26.40;99.90;;;;;;5112261;28;20200;-72
2023/07/17 11:30:21;;;;;;;5.22;4.63;;;26.90;99.90;;;;;;5114209;28;20299;-72
2023/07/17 11:32:58;;;;;;;5.55;5.05;;;27.00;99.90;;;;;;5114439;28;20165;-72
2023/07/17 11:35:36;;;;;;;6.43;5.35;;;26.90;99.90;;;;;;5114866;28;20169;-72
2023/07/17 11:38:06;;;;;;;7.35;4.90;;;26.60;99.90;;;;;;5096446;28;20176;-71
2023/07/17 11:40:31;;;;;;;5.13;4.40;;;26.50;99.90;;;;;;5114236;28;20192;-73
2023/07/17 11:43:03;;;;;;;8.73;4.93;;;26.30;99.90;;;;;;5095905;28;20183;-73
2023/07/17 11:45:30;;;;;;;6.90;5.25;;;26.30;99.90;;;;;;5114673;28;20173;-73
2023/07/17 11:47:57;;;;;;;7.85;5.20;;;26.40;99.90;;;;;;5114508;28;20173;-72
2023/07/17 11:50:27;;;;;;;5.70;4.80;;;26.40;99.90;;;;;;5114083;28;20576;-72
2023/07/17 11:53:11;;;;;;;6.93;4.55;;;26.50;99.90;;;;;;5095986;28;20709;-70
2023/07/17 11:55:40;;;;;;;5.43;4.93;;;26.50;99.90;;;;;;5101505;28;20204;-70
2023/07/17 11:58:16;;;;;;;7.75;5.55;;;26.10;99.90;;;;;;5093808;28;20180;-71
2023/07/17 12:00:46;;;;;;;8.18;4.88;;;25.70;99.90;;;;;;5093566;28;20193;-72
2023/07/17 12:03:11;;;;;;;5.10;4.60;;;25.60;99.90;;;;;;5075468;28;20180;-72
2023/07/17 12:05:38;;;;;;;5.10;4.60;;;25.70;99.90;;;;;;5093752;28;20174;-73
2023/07/17 12:08:04;;;;;;;7.93;5.15;;;25.50;99.90;;;;;;5093746;28;20177;-72
2023/07/17 12:10:30;;;;;;;7.75;5.25;;;25.50;99.90;;;;;;5093553;28;20724;-72
2023/07/17 12:12:57;;;;;;;7.20;4.95;;;25.40;99.90;;;;;;5093305;28;20241;-72
2023/07/17 12:15:23;;;;;;;10.00;5.85;;;25.30;99.90;;;;;;5093605;28;20158;-72
2023/07/17 12:17:49;;;;;;;6.05;4.78;;;25.00;99.90;;;;;;5093369;28;20204;-72
2023/07/17 12:20:15;;;;;;;6.10;5.50;;;25.20;99.90;;;;;;5093590;28;20193;-71
2023/07/17 12:22:41;;;;;;;7.07;5.25;;;25.20;99.90;;;;;;5092022;28;20170;-72
2023/07/17 12:25:08;;;;;;;7.88;5.55;;;25.00;99.90;;;;;;5093582;28;20659;-70
2023/07/17 12:27:33;;;;;;;6.55;5.32;;;25.10;99.90;;;;;;5100189;28;20663;-72
2023/07/17 12:29:59;;;;;;;5.38;4.88;;;25.20;99.90;;;;;;5101556;28;20216;-72
2023/07/17 12:32:25;;;;;;;9.20;5.43;;;25.40;99.90;;;;;;5096245;28;20510;-72
2023/07/17 12:34:50;;;;;;;8.52;5.57;;;25.70;99.90;;;;;;5113329;28;20256;-72
2023/07/17 12:37:16;;;;;;;5.53;4.80;;;25.90;99.90;;;;;;5113396;28;20169;-73
2023/07/17 12:39:42;;;;;;;8.88;4.93;;;25.90;99.90;;;;;;5113244;28;20185;-72
2023/07/17 12:42:07;;;;;;;5.25;4.75;;;25.90;99.90;;;;;;5108629;28;20561;-72